createdAt,value
2017-11-20T00:00:51.261Z,3.20
2017-11-20T00:03:17.989Z,3.00
2017-11-20T00:05:44.652Z,3.73
2017-11-20T00:08:11.321Z,3.13
2017-11-20T00:10:37.997Z,2.90
2017-11-20T00:13:04.638Z,3.27
2017-11-20T00:15:31.298Z,3.10
2017-11-20T00:17:57.929Z,3.20
2017-11-20T00:20:24.582Z,3.83
2017-11-20T00:22:51.347Z,3.07
2017-11-20T00:25:18.113Z,3.20
2017-11-20T00:27:44.776Z,3.10
2017-11-20T00:30:11.490Z,2.80
2017-11-20T00:32:38.139Z,3.60
2017-11-20T00:35:04.779Z,2.90
2017-11-20T00:37:31.435Z,2.93
2017-11-20T00:39:58.066Z,2.67
2017-11-20T00:42:24.721Z,3.37
2017-11-20T00:44:51.418Z,3.17
2017-11-20T00:47:18.134Z,2.90
2017-11-20T00:49:44.786Z,3.33
2017-11-20T00:52:11.778Z,3.10
2017-11-20T00:54:38.454Z,2.93
2017-11-20T00:57:05.091Z,2.80
2017-11-20T00:59:31.747Z,2.80
2017-11-20T01:01:58.389Z,2.80
2017-11-20T01:04:25.036Z,2.80
2017-11-20T01:06:51.686Z,2.90
2017-11-20T01:09:18.429Z,2.77
2017-11-20T01:11:45.070Z,3.00
2017-11-20T01:14:11.706Z,3.00
2017-11-20T01:16:38.404Z,2.23
2017-11-20T01:19:05.102Z,2.73
2017-11-20T01:21:31.754Z,2.77
2017-11-20T01:23:58.381Z,2.40
2017-11-20T01:26:25.043Z,2.23
2017-11-20T01:28:51.682Z,2.40
2017-11-20T01:31:18.377Z,3.23
2017-11-20T01:33:45.058Z,2.60
2017-11-20T01:36:11.717Z,2.57
2017-11-20T01:38:38.363Z,2.80
2017-11-20T01:41:04.998Z,2.70
2017-11-20T01:43:31.690Z,2.80
2017-11-20T01:45:58.320Z,2.70
2017-11-20T01:48:24.974Z,2.67
2017-11-20T01:50:51.627Z,2.97
2017-11-20T01:53:18.354Z,3.00
2017-11-20T01:55:45.061Z,2.80
2017-11-20T01:58:11.780Z,2.50
2017-11-20T02:00:38.421Z,2.90
2017-11-20T02:03:05.186Z,3.10
2017-11-20T02:05:31.850Z,2.70
2017-11-20T02:07:58.506Z,2.63
2017-11-20T02:10:25.138Z,3.00
2017-11-20T02:12:51.788Z,2.60
2017-11-20T02:15:18.525Z,3.00
2017-11-20T02:17:45.302Z,3.10
2017-11-20T02:20:11.959Z,2.37
2017-11-20T02:22:38.920Z,2.50
2017-11-20T02:25:05.574Z,3.00
2017-11-20T02:27:32.206Z,2.53
2017-11-20T02:29:58.967Z,2.50
2017-11-20T02:32:25.600Z,2.80
2017-11-20T02:34:52.254Z,2.30
2017-11-20T02:37:18.990Z,3.07
2017-11-20T02:39:45.649Z,2.80
2017-11-20T02:42:12.287Z,3.13
2017-11-20T02:44:39.074Z,2.77
2017-11-20T02:47:05.734Z,2.63
2017-11-20T02:49:32.386Z,2.97
2017-11-20T02:51:59.036Z,2.57
2017-11-20T02:54:25.712Z,2.67
2017-11-20T02:56:52.371Z,2.53
2017-11-20T02:59:19.032Z,2.37
2017-11-20T03:01:45.702Z,2.30
2017-11-20T03:04:12.502Z,2.90
2017-11-20T03:06:39.176Z,2.40
2017-11-20T03:09:05.812Z,2.40
2017-11-20T03:11:32.458Z,2.30
2017-11-20T03:13:59.111Z,2.30
2017-11-20T03:16:25.749Z,2.70
2017-11-20T03:18:52.412Z,2.63
2017-11-20T03:21:19.258Z,2.50
2017-11-20T03:23:46.022Z,2.50
2017-11-20T03:26:12.657Z,2.30
2017-11-20T03:28:39.325Z,2.33
2017-11-20T03:31:05.972Z,2.50
2017-11-20T03:33:32.625Z,2.67
2017-11-20T03:35:59.262Z,2.17
2017-11-20T03:38:25.934Z,2.70
2017-11-20T03:40:52.591Z,2.10
2017-11-20T03:43:19.307Z,2.53
2017-11-20T03:45:46.103Z,2.17
2017-11-20T03:48:12.841Z,2.70
2017-11-20T03:50:39.589Z,2.40
2017-11-20T03:53:06.225Z,2.70
2017-11-20T03:55:32.873Z,2.20
2017-11-20T03:57:59.509Z,2.40
2017-11-20T04:00:26.161Z,2.40
2017-11-20T04:02:52.797Z,2.10
2017-11-20T04:05:19.627Z,2.57
2017-11-20T04:07:46.383Z,2.50
2017-11-20T04:10:13.061Z,2.23
2017-11-20T04:12:39.698Z,2.00
2017-11-20T04:15:06.422Z,2.50
2017-11-20T04:17:33.149Z,2.63
2017-11-20T04:19:59.787Z,2.47
2017-11-20T04:22:26.441Z,2.10
2017-11-20T04:24:53.152Z,2.33
2017-11-20T04:27:19.838Z,2.30
2017-11-20T04:29:46.611Z,2.90
2017-11-20T04:32:13.293Z,2.13
2017-11-20T04:34:39.965Z,2.47
2017-11-20T04:37:06.677Z,2.43
2017-11-20T04:39:33.321Z,2.43
2017-11-20T04:41:59.998Z,2.40
2017-11-20T04:44:26.630Z,2.30
2017-11-20T04:46:53.273Z,2.80
2017-11-20T04:49:19.959Z,2.30
2017-11-20T04:51:46.813Z,2.10
2017-11-20T04:54:13.567Z,2.13
2017-11-20T04:56:40.223Z,2.63
2017-11-20T04:59:06.920Z,2.07
2017-11-20T05:01:33.617Z,2.60
2017-11-20T05:04:00.369Z,2.30
2017-11-20T05:06:27.023Z,2.17
2017-11-20T05:08:53.678Z,2.23
2017-11-20T05:11:20.414Z,2.60
2017-11-20T05:13:47.138Z,2.20
2017-11-20T05:16:13.812Z,2.50
2017-11-20T05:18:40.449Z,2.40
2017-11-20T05:21:07.133Z,2.10
2017-11-20T05:23:33.782Z,2.40
2017-11-20T05:26:00.434Z,2.70
2017-11-20T05:28:27.070Z,2.40
2017-11-20T05:30:53.809Z,2.07
2017-11-20T05:33:20.511Z,2.53
2017-11-20T05:35:47.240Z,2.53
2017-11-20T05:38:13.941Z,2.03
2017-11-20T05:40:40.574Z,2.30
2017-11-20T05:43:07.250Z,2.67
2017-11-20T05:45:33.890Z,2.23
2017-11-20T05:48:00.606Z,2.50
2017-11-20T05:50:27.238Z,2.00
2017-11-20T05:52:53.911Z,2.00
2017-11-20T05:55:20.582Z,2.47
2017-11-20T05:57:47.258Z,2.17
2017-11-20T06:00:14.074Z,2.27
2017-11-20T06:02:40.710Z,2.30
2017-11-20T06:05:07.366Z,2.03
2017-11-20T06:07:34.006Z,2.50
2017-11-20T06:10:00.683Z,2.07
2017-11-20T06:12:27.317Z,1.87
2017-11-20T06:14:54.409Z,2.43
2017-11-20T06:17:21.164Z,1.80
2017-11-20T06:19:48.017Z,2.20
2017-11-20T06:22:14.676Z,2.20
2017-11-20T06:24:41.331Z,2.23
2017-11-20T06:27:08.007Z,2.67
2017-11-20T06:29:34.646Z,2.20
2017-11-20T06:32:01.302Z,2.03
2017-11-20T06:34:27.945Z,2.07
2017-11-20T06:36:54.586Z,2.47
2017-11-20T06:39:21.642Z,2.10
2017-11-20T06:41:48.337Z,2.33
2017-11-20T06:44:15.070Z,2.47
2017-11-20T06:46:41.709Z,1.77
2017-11-20T06:49:08.361Z,2.10
2017-11-20T06:51:34.999Z,2.07
2017-11-20T06:54:01.654Z,2.37
2017-11-20T06:56:28.290Z,2.20
2017-11-20T06:58:54.921Z,2.30
2017-11-20T07:01:21.602Z,2.00
2017-11-20T07:03:48.381Z,1.70
2017-11-20T07:06:15.049Z,2.17
2017-11-20T07:08:41.682Z,2.27
2017-11-20T07:11:08.335Z,1.90
2017-11-20T07:13:34.970Z,1.90
2017-11-20T07:16:01.617Z,1.87
2017-11-20T07:18:28.255Z,1.93
2017-11-20T07:20:54.905Z,2.10
2017-11-20T07:23:21.554Z,2.27
2017-11-20T07:25:54.166Z,1.67
2017-11-20T07:28:26.750Z,2.77
2017-11-20T07:31:00.254Z,2.10
2017-11-20T07:33:32.842Z,2.03
2017-11-20T07:36:05.435Z,2.90
2017-11-20T07:38:47.710Z,2.03
2017-11-20T07:41:29.222Z,2.50
2017-11-20T07:43:55.905Z,1.70
2017-11-20T07:46:22.538Z,2.03
2017-11-20T07:48:49.198Z,2.27
2017-11-20T07:51:15.837Z,1.90
2017-11-20T07:53:42.493Z,2.03
2017-11-20T07:56:09.138Z,1.77
2017-11-20T07:58:35.818Z,2.17
2017-11-20T08:01:02.454Z,2.23
2017-11-20T08:03:29.106Z,2.00
2017-11-20T08:05:55.745Z,1.90
2017-11-20T08:08:22.420Z,1.93
2017-11-20T08:10:49.062Z,2.33
2017-11-20T08:13:15.703Z,1.70
2017-11-20T08:15:42.358Z,2.17
2017-11-20T08:18:08.996Z,2.37
2017-11-20T08:20:35.654Z,2.10
2017-11-20T08:23:02.294Z,1.80
2017-11-20T08:25:28.951Z,1.67
2017-11-20T08:27:55.587Z,1.77
2017-11-20T08:30:22.275Z,1.70
2017-11-20T08:32:48.906Z,1.80
2017-11-20T08:35:15.543Z,2.27
2017-11-20T08:37:42.203Z,1.60
2017-11-20T08:40:09.041Z,1.80
2017-11-20T08:42:35.935Z,1.67
2017-11-20T08:45:02.752Z,1.90
2017-11-20T08:47:29.966Z,2.10
2017-11-20T08:49:57.028Z,2.43
2017-11-20T08:52:25.103Z,1.93
2017-11-20T08:54:52.991Z,2.33
2017-11-20T08:57:19.809Z,2.13
2017-11-20T08:59:46.476Z,1.90
2017-11-20T09:02:13.114Z,1.80
2017-11-20T09:04:39.774Z,1.90
2017-11-20T09:07:06.418Z,1.60
2017-11-20T09:09:33.187Z,1.63
2017-11-20T09:11:59.847Z,1.73
2017-11-20T09:14:26.495Z,1.53
2017-11-20T09:16:53.151Z,2.00
2017-11-20T09:19:19.785Z,1.67
2017-11-20T09:21:46.542Z,1.80
2017-11-20T09:24:13.178Z,2.20
2017-11-20T09:26:39.826Z,1.73
2017-11-20T09:29:06.465Z,1.97
2017-11-20T09:31:33.118Z,2.17
2017-11-20T09:33:59.759Z,2.03
2017-11-20T09:36:26.451Z,1.60
2017-11-20T09:38:53.090Z,2.03
2017-11-20T09:41:19.726Z,1.63
2017-11-20T09:43:46.377Z,1.93
2017-11-20T09:46:13.050Z,2.20
2017-11-20T09:48:39.698Z,1.90
2017-11-20T09:51:06.331Z,2.00
2017-11-20T09:53:32.989Z,2.30
2017-11-20T09:55:59.625Z,1.60
2017-11-20T09:58:26.282Z,1.70
2017-11-20T10:00:52.930Z,1.90
2017-11-20T10:03:19.582Z,1.70
2017-11-20T10:05:46.223Z,1.70
2017-11-20T10:08:12.910Z,1.77
2017-11-20T10:10:39.545Z,1.80
2017-11-20T10:13:06.209Z,1.80
2017-11-20T10:15:32.866Z,1.70
2017-11-20T10:17:59.498Z,1.73
2017-11-20T10:20:26.154Z,1.93
2017-11-20T10:22:52.798Z,1.77
2017-11-20T10:25:19.446Z,1.30
2017-11-20T10:27:46.081Z,1.50
2017-11-20T10:30:12.785Z,1.53
2017-11-20T10:32:39.421Z,1.80
2017-11-20T10:35:06.070Z,1.63
2017-11-20T10:37:32.700Z,1.50
2017-11-20T10:39:59.349Z,1.53
2017-11-20T10:42:25.985Z,1.57
2017-11-20T10:44:52.670Z,1.87
2017-11-20T10:47:19.332Z,1.57
2017-11-20T10:49:46.042Z,1.60
2017-11-20T10:52:12.694Z,1.67
2017-11-20T10:54:39.334Z,1.63
2017-11-20T10:57:06.035Z,1.90
2017-11-20T10:59:32.693Z,1.63
2017-11-20T11:01:59.379Z,1.60
2017-11-20T11:04:26.010Z,1.90
2017-11-20T11:06:52.658Z,1.70
2017-11-20T11:09:19.290Z,1.60
2017-11-20T11:11:46.160Z,1.77
2017-11-20T11:14:12.890Z,1.63
2017-11-20T11:16:39.566Z,2.00
2017-11-20T11:19:06.206Z,1.70
2017-11-20T11:21:32.860Z,1.47
2017-11-20T11:23:59.518Z,2.20
2017-11-20T11:26:26.160Z,2.03
2017-11-20T11:28:52.830Z,2.03
2017-11-20T11:31:19.553Z,1.73
2017-11-20T11:33:46.299Z,1.70
2017-11-20T11:36:16.469Z,1.60
2017-11-20T11:38:39.622Z,1.60
2017-11-20T11:41:06.342Z,1.47
2017-11-20T11:43:33.014Z,1.53
2017-11-20T11:45:59.647Z,1.30
2017-11-20T11:48:26.307Z,1.60
2017-11-20T11:50:52.961Z,1.73
2017-11-20T11:53:19.606Z,1.70
2017-11-20T11:55:46.297Z,1.47
2017-11-20T11:58:12.934Z,1.90
2017-11-20T12:00:39.669Z,2.10
2017-11-20T12:03:06.318Z,2.03
2017-11-20T12:05:33.070Z,1.93
2017-11-20T12:07:59.706Z,2.10
2017-11-20T12:10:26.362Z,1.90
2017-11-20T12:12:52.992Z,1.70
2017-11-20T12:15:19.674Z,2.03
2017-11-20T12:17:46.329Z,1.50
2017-11-20T12:20:12.983Z,1.87
2017-11-20T12:22:39.614Z,1.60
2017-11-20T12:25:06.270Z,2.07
2017-11-20T12:27:32.930Z,1.90
2017-11-20T12:29:59.689Z,1.90
2017-11-20T12:32:26.433Z,1.70
2017-11-20T12:34:53.095Z,1.40
2017-11-20T12:37:19.734Z,1.80
2017-11-20T12:39:46.392Z,1.90
2017-11-20T12:42:13.027Z,1.97
2017-11-20T12:44:39.681Z,2.13
2017-11-20T12:47:06.318Z,1.80
2017-11-20T12:49:32.986Z,2.13
2017-11-20T12:51:59.614Z,2.50
2017-11-20T12:54:26.290Z,2.13
2017-11-20T12:56:52.954Z,2.03
2017-11-20T12:59:19.610Z,2.33
2017-11-20T13:01:46.510Z,4.10
2017-11-20T13:04:13.205Z,3.33
2017-11-20T13:06:39.850Z,3.83
2017-11-20T13:09:06.502Z,3.93
2017-11-20T13:11:33.157Z,3.50
2017-11-20T13:13:59.796Z,3.10
2017-11-20T13:16:26.469Z,2.60
2017-11-20T13:18:53.210Z,2.27
2017-11-20T13:21:19.861Z,2.30
2017-11-20T13:23:46.494Z,2.70
2017-11-20T13:26:13.146Z,2.83
2017-11-20T13:28:39.783Z,2.67
2017-11-20T13:31:06.434Z,3.07
2017-11-20T13:33:33.132Z,2.27
2017-11-20T13:35:59.866Z,1.97
2017-11-20T13:38:26.502Z,2.17
2017-11-20T13:40:53.161Z,2.37
2017-11-20T13:43:19.831Z,2.33
2017-11-20T13:45:46.570Z,2.70
2017-11-20T13:48:13.325Z,2.03
2017-11-20T13:50:39.979Z,2.47
2017-11-20T13:53:06.618Z,2.50
2017-11-20T13:55:33.270Z,2.20
2017-11-20T13:57:59.910Z,3.07
2017-11-20T14:00:26.590Z,2.10
2017-11-20T14:02:53.266Z,2.97
2017-11-20T14:05:19.941Z,3.10
2017-11-20T14:07:46.573Z,2.40
2017-11-20T14:10:13.248Z,2.20
2017-11-20T14:12:39.889Z,2.30
2017-11-20T14:15:06.590Z,2.40
2017-11-20T14:17:33.225Z,2.17
2017-11-20T14:19:59.889Z,2.07
2017-11-20T14:22:26.522Z,2.07
2017-11-20T14:24:53.153Z,1.90
2017-11-20T14:27:19.822Z,2.10
2017-11-20T14:29:46.465Z,2.47
2017-11-20T14:32:13.138Z,2.00
2017-11-20T14:34:39.826Z,2.13
2017-11-20T14:37:06.534Z,2.27
2017-11-20T14:39:33.202Z,2.20
2017-11-20T14:41:59.865Z,2.07
2017-11-20T14:44:26.594Z,2.00
2017-11-20T14:46:53.349Z,2.40
2017-11-20T14:49:19.986Z,2.43
2017-11-20T14:51:47.486Z,1.83
2017-11-20T14:54:19.867Z,2.03
2017-11-20T14:56:46.614Z,2.20
2017-11-20T14:59:13.255Z,1.67
2017-11-20T15:01:40.725Z,1.90
2017-11-20T15:04:07.361Z,2.23
2017-11-20T15:06:34.025Z,2.50
2017-11-20T15:09:00.694Z,2.03
2017-11-20T15:11:27.348Z,2.43
2017-11-20T15:13:54.032Z,1.90
2017-11-20T15:16:20.741Z,1.73
2017-11-20T15:18:47.379Z,2.23
2017-11-20T15:21:14.034Z,1.97
2017-11-20T15:23:40.668Z,1.87
2017-11-20T15:26:07.329Z,1.90
2017-11-20T15:28:33.962Z,2.30
2017-11-20T15:31:00.625Z,2.00
2017-11-20T15:33:27.306Z,1.90
2017-11-20T15:35:53.982Z,2.20
2017-11-20T15:38:20.670Z,2.20
2017-11-20T15:40:47.438Z,2.20
2017-11-20T15:43:14.925Z,1.80
2017-11-20T15:45:41.572Z,1.90
2017-11-20T15:48:08.205Z,2.43
2017-11-20T15:50:34.862Z,2.30
2017-11-20T15:53:01.523Z,1.90
2017-11-20T15:55:28.154Z,1.80
2017-11-20T15:57:54.822Z,2.10
2017-11-20T16:00:21.468Z,2.10
2017-11-20T16:02:48.147Z,2.13
2017-11-20T16:05:14.878Z,2.23
2017-11-20T16:07:41.555Z,1.90
2017-11-20T16:10:08.282Z,2.10
2017-11-20T16:12:34.934Z,2.03
2017-11-20T16:15:01.602Z,2.13
2017-11-20T16:17:28.261Z,1.70
2017-11-20T16:19:54.907Z,2.00
2017-11-20T16:22:21.627Z,1.90
2017-11-20T16:24:48.417Z,2.17
2017-11-20T16:27:15.102Z,1.83
2017-11-20T16:29:41.749Z,1.67
2017-11-20T16:32:08.402Z,1.60
2017-11-20T16:34:35.042Z,2.00
2017-11-20T16:37:01.698Z,1.87
2017-11-20T16:39:28.341Z,2.20
2017-11-20T16:41:55.060Z,1.80
2017-11-20T16:44:21.818Z,1.77
2017-11-20T16:46:48.474Z,1.90
2017-11-20T16:49:15.205Z,2.17
2017-11-20T16:51:41.882Z,2.10
2017-11-20T16:54:08.530Z,2.30
2017-11-20T16:56:35.186Z,1.70
2017-11-20T16:59:02.713Z,1.80
2017-11-20T17:01:35.206Z,1.80
2017-11-20T17:04:01.850Z,1.60
2017-11-20T17:06:28.502Z,1.80
2017-11-20T17:08:55.175Z,2.17
2017-11-20T17:11:21.926Z,1.90
2017-11-20T17:13:48.596Z,1.67
2017-11-20T17:16:15.270Z,1.53
2017-11-20T17:18:41.902Z,2.20
2017-11-20T17:21:08.543Z,1.80
2017-11-20T17:23:35.278Z,2.63
2017-11-20T17:26:01.930Z,1.93
2017-11-20T17:28:28.582Z,1.97
2017-11-20T17:30:55.233Z,1.73
2017-11-20T17:33:21.921Z,1.60
2017-11-20T17:35:48.571Z,1.67
2017-11-20T17:38:15.294Z,1.87
2017-11-20T17:40:41.963Z,1.70
2017-11-20T17:43:08.692Z,2.03
2017-11-20T17:45:35.330Z,1.80
2017-11-20T17:48:01.982Z,1.70
2017-11-20T17:50:28.614Z,1.90
2017-11-20T17:52:55.302Z,1.67
2017-11-20T17:55:22.054Z,1.80
2017-11-20T17:57:48.791Z,1.70
2017-11-20T18:00:15.510Z,2.10
2017-11-20T18:02:42.185Z,1.70
2017-11-20T18:05:08.858Z,1.67
2017-11-20T18:07:35.602Z,1.80
2017-11-20T18:10:02.242Z,2.00
2017-11-20T18:12:28.913Z,1.90
2017-11-20T18:14:55.550Z,1.63
2017-11-20T18:17:22.230Z,1.97
2017-11-20T18:19:48.906Z,1.60
2017-11-20T18:22:15.561Z,1.57
2017-11-20T18:24:42.269Z,2.27
2017-11-20T18:27:08.921Z,1.70
2017-11-20T18:29:35.565Z,1.70
2017-11-20T18:32:02.217Z,1.90
2017-11-20T18:34:28.869Z,1.80
2017-11-20T18:36:55.537Z,1.83
2017-11-20T18:39:22.623Z,2.03
2017-11-20T18:41:49.317Z,2.10
2017-11-20T18:44:15.978Z,1.90
2017-11-20T18:46:42.625Z,2.17
2017-11-20T18:49:09.300Z,2.50
2017-11-20T18:51:35.944Z,1.83
2017-11-20T18:54:02.598Z,1.90
2017-11-20T18:56:29.233Z,2.00
2017-11-20T18:58:56.003Z,1.73
2017-11-20T19:01:28.483Z,2.03
2017-11-20T19:04:01.079Z,2.50
2017-11-20T19:06:33.546Z,2.23
2017-11-20T19:09:06.246Z,2.03
2017-11-20T19:11:32.886Z,2.13
2017-11-20T19:13:59.536Z,2.20
2017-11-20T19:16:26.190Z,1.87
2017-11-20T19:18:53.379Z,1.57
2017-11-20T19:21:20.274Z,1.60
2017-11-20T19:23:46.937Z,2.20
2017-11-20T19:26:13.581Z,1.90
2017-11-20T19:28:40.279Z,1.90
2017-11-20T19:31:06.951Z,1.90
2017-11-20T19:33:33.686Z,1.83
2017-11-20T19:36:00.443Z,2.10
2017-11-20T19:38:27.189Z,2.10
2017-11-20T19:40:53.858Z,1.47
2017-11-20T19:43:20.533Z,1.70
2017-11-20T19:45:47.213Z,1.53
2017-11-20T19:48:13.858Z,1.50
2017-11-20T19:50:40.521Z,1.77
2017-11-20T19:53:07.159Z,2.07
2017-11-20T19:55:33.850Z,2.07
2017-11-20T19:58:00.493Z,2.00
2017-11-20T20:00:27.153Z,2.20
2017-11-20T20:02:54.322Z,1.90
2017-11-20T20:05:21.069Z,2.20
2017-11-20T20:07:47.726Z,1.90
2017-11-20T20:10:14.382Z,2.13
2017-11-20T20:12:41.086Z,1.43
2017-11-20T20:15:13.814Z,1.43
2017-11-20T20:17:40.486Z,1.80
2017-11-20T20:20:07.135Z,1.43
2017-11-20T20:22:33.866Z,1.80
2017-11-20T20:25:00.504Z,1.70
2017-11-20T20:27:27.475Z,1.70
2017-11-20T20:29:54.205Z,1.40
2017-11-20T20:32:21.216Z,1.87
2017-11-20T20:34:47.937Z,2.00
2017-11-20T20:37:14.566Z,1.93
2017-11-20T20:39:41.252Z,1.60
2017-11-20T20:42:07.999Z,1.70
2017-11-20T20:44:34.663Z,1.60
2017-11-20T20:47:01.302Z,1.83
2017-11-20T20:49:27.958Z,1.67
2017-11-20T20:51:54.906Z,1.60
2017-11-20T20:54:22.033Z,1.43
2017-11-20T20:56:48.739Z,1.87
2017-11-20T20:59:15.470Z,1.70
2017-11-20T21:01:42.160Z,1.53
2017-11-20T21:04:08.875Z,1.50
2017-11-20T21:06:41.349Z,1.30
2017-11-20T21:09:07.986Z,1.70
2017-11-20T21:11:40.570Z,1.83
2017-11-20T21:14:07.362Z,1.50
2017-11-20T21:16:34.109Z,1.60
2017-11-20T21:19:00.743Z,1.70
2017-11-20T21:21:27.414Z,1.60
2017-11-20T21:23:54.181Z,1.80
2017-11-20T21:26:21.838Z,1.50
2017-11-20T21:28:48.614Z,1.70
2017-11-20T21:31:15.357Z,1.70
2017-11-20T21:33:42.039Z,1.90
2017-11-20T21:36:08.757Z,1.87
2017-11-20T21:38:35.515Z,1.50
2017-11-20T21:41:02.159Z,1.90
2017-11-20T21:43:28.811Z,1.60
2017-11-20T21:45:55.479Z,1.63
2017-11-20T21:48:22.174Z,1.70
2017-11-20T21:50:49.199Z,1.67
2017-11-20T21:53:16.029Z,1.60
2017-11-20T21:55:42.688Z,2.00
2017-11-20T21:58:09.380Z,1.60
2017-11-20T22:00:36.078Z,1.50
2017-11-20T22:03:02.730Z,1.53
2017-11-20T22:05:29.408Z,2.00
2017-11-20T22:07:56.094Z,1.70
2017-11-20T22:10:23.112Z,1.73
2017-11-20T22:12:55.796Z,1.60
2017-11-20T22:15:22.499Z,1.63
2017-11-20T22:17:49.170Z,1.60
2017-11-20T22:20:15.838Z,1.73
2017-11-20T22:22:42.492Z,1.50
2017-11-20T22:25:09.137Z,2.13
2017-11-20T22:27:35.765Z,1.60
2017-11-20T22:30:02.412Z,1.53
2017-11-20T22:32:29.046Z,1.47
2017-11-20T22:34:55.706Z,1.60
2017-11-20T22:37:22.731Z,1.53
2017-11-20T22:39:49.693Z,1.50
2017-11-20T22:42:16.408Z,1.80
2017-11-20T22:44:43.074Z,1.53
2017-11-20T22:47:09.713Z,1.60
2017-11-20T22:49:36.346Z,1.33
2017-11-20T22:52:03.026Z,1.83
2017-11-20T22:54:29.694Z,1.90
2017-11-20T22:56:56.927Z,1.73
2017-11-20T22:59:24.060Z,1.80
2017-11-20T23:01:51.571Z,1.57
2017-11-20T23:04:18.254Z,1.90
2017-11-20T23:06:44.966Z,1.70
2017-11-20T23:09:11.687Z,1.53
2017-11-20T23:11:38.450Z,1.73
2017-11-20T23:14:05.130Z,1.70
2017-11-20T23:16:31.776Z,1.73
2017-11-20T23:18:58.634Z,1.63
2017-11-20T23:21:25.722Z,1.40
2017-11-20T23:23:53.352Z,1.80
2017-11-20T23:26:20.335Z,1.63
2017-11-20T23:28:47.009Z,1.60
2017-11-20T23:31:13.851Z,1.53
2017-11-20T23:33:40.707Z,1.53
2017-11-20T23:36:07.445Z,1.63
2017-11-20T23:38:34.197Z,1.60
2017-11-20T23:41:00.830Z,1.50
2017-11-20T23:43:27.498Z,1.70
2017-11-20T23:45:54.291Z,1.40
2017-11-20T23:48:21.229Z,1.70
2017-11-20T23:50:47.975Z,1.63
2017-11-20T23:53:20.683Z,1.83
2017-11-20T23:55:47.409Z,1.50
2017-11-20T23:58:14.330Z,1.50
